createdAt,value
2017-06-09T00:02:27.646Z,52.70
2017-06-09T00:04:56.741Z,53.20
2017-06-09T00:07:25.877Z,53.10
2017-06-09T00:09:54.123Z,53.00
2017-06-09T00:12:23.252Z,53.10
2017-06-09T00:14:51.520Z,53.10
2017-06-09T00:17:19.762Z,53.00
2017-06-09T00:19:48.756Z,53.10
2017-06-09T00:22:17.939Z,53.10
2017-06-09T00:24:46.946Z,52.60
2017-06-09T00:27:16.139Z,53.20
2017-06-09T00:29:44.365Z,53.10
2017-06-09T00:32:12.640Z,53.10
2017-06-09T00:34:40.879Z,53.00
2017-06-09T00:37:10.003Z,53.20
2017-06-09T00:39:38.553Z,53.20
2017-06-09T00:42:06.899Z,53.20
2017-06-09T00:44:35.481Z,53.30
2017-06-09T00:47:03.818Z,53.20
2017-06-09T00:49:32.121Z,53.40
2017-06-09T00:52:00.461Z,53.40
2017-06-09T00:54:28.788Z,53.50
2017-06-09T00:56:57.034Z,53.70
2017-06-09T00:59:25.277Z,53.50
2017-06-09T01:01:53.517Z,53.50
2017-06-09T01:04:21.854Z,53.60
2017-06-09T01:06:50.089Z,53.60
2017-06-09T01:09:19.113Z,53.80
2017-06-09T01:11:47.397Z,53.70
2017-06-09T01:14:15.668Z,53.80
2017-06-09T01:16:43.901Z,53.80
2017-06-09T01:19:12.985Z,54.20
2017-06-09T01:21:42.062Z,54.30
2017-06-09T01:24:10.301Z,54.00
2017-06-09T01:26:38.561Z,54.10
2017-06-09T01:29:06.801Z,54.00
2017-06-09T01:31:35.058Z,54.00
2017-06-09T01:34:03.292Z,54.00
2017-06-09T01:36:31.556Z,54.10
2017-06-09T01:39:00.589Z,54.30
2017-06-09T01:41:28.847Z,54.20
2017-06-09T01:43:57.287Z,54.30
2017-06-09T01:46:26.300Z,55.00
2017-06-09T01:48:54.550Z,54.10
2017-06-09T01:51:23.545Z,54.80
2017-06-09T01:53:52.557Z,54.80
2017-06-09T01:56:20.794Z,54.80
2017-06-09T01:58:49.066Z,54.90
2017-06-09T02:01:17.300Z,55.20
2017-06-09T02:03:45.555Z,55.30
2017-06-09T02:06:13.827Z,55.30
2017-06-09T02:08:42.962Z,56.30
2017-06-09T02:11:11.244Z,56.20
2017-06-09T02:13:39.589Z,56.00
2017-06-09T02:16:07.883Z,55.80
2017-06-09T02:18:36.168Z,55.60
2017-06-09T02:21:04.389Z,55.50
2017-06-09T02:23:33.972Z,55.70
2017-06-09T02:26:02.265Z,55.60
2017-06-09T02:28:30.658Z,56.40
2017-06-09T02:30:59.712Z,56.60
2017-06-09T02:33:27.911Z,56.60
2017-06-09T02:35:56.978Z,57.70
2017-06-09T02:38:25.210Z,57.10
2017-06-09T02:40:53.462Z,57.50
2017-06-09T02:43:21.740Z,57.70
2017-06-09T02:45:49.994Z,58.20
2017-06-09T02:48:18.278Z,57.70
2017-06-09T02:50:46.605Z,57.40
2017-06-09T02:53:14.897Z,57.30
2017-06-09T02:55:43.183Z,57.70
2017-06-09T02:58:11.433Z,57.90
2017-06-09T03:00:39.665Z,58.00
2017-06-09T03:03:08.018Z,58.20
2017-06-09T03:05:36.328Z,58.20
2017-06-09T03:08:05.465Z,58.50
2017-06-09T03:10:33.740Z,58.50
2017-06-09T03:13:02.075Z,58.40
2017-06-09T03:15:31.082Z,58.80
2017-06-09T03:17:59.416Z,58.80
2017-06-09T03:20:27.753Z,58.50
2017-06-09T03:22:56.037Z,58.30
2017-06-09T03:25:24.309Z,58.30
2017-06-09T03:27:52.550Z,58.20
2017-06-09T03:30:21.575Z,58.60
2017-06-09T03:32:55.498Z,58.50
2017-06-09T03:35:23.761Z,58.10
2017-06-09T03:37:52.001Z,58.40
2017-06-09T03:40:21.129Z,58.90
2017-06-09T03:42:49.362Z,58.90
2017-06-09T03:45:18.385Z,59.80
2017-06-09T03:47:46.719Z,59.50
2017-06-09T03:50:15.030Z,59.30
2017-06-09T03:52:43.266Z,59.60
2017-06-09T03:55:11.521Z,59.70
2017-06-09T03:57:39.779Z,59.80
2017-06-09T04:00:08.107Z,60.00
2017-06-09T04:02:37.186Z,59.50
2017-06-09T04:05:05.457Z,59.90
2017-06-09T04:07:33.801Z,59.60
2017-06-09T04:10:02.080Z,59.70
2017-06-09T04:12:30.333Z,59.90
2017-06-09T04:14:58.694Z,60.40
2017-06-09T04:17:27.734Z,60.10
2017-06-09T04:19:55.985Z,60.90
2017-06-09T04:22:24.252Z,60.10
2017-06-09T04:24:52.495Z,60.20
2017-06-09T04:27:20.729Z,60.40
2017-06-09T04:29:49.018Z,60.60
2017-06-09T04:32:17.258Z,60.40
2017-06-09T04:34:46.001Z,60.30
2017-06-09T04:37:14.230Z,60.50
2017-06-09T04:39:42.555Z,60.00
2017-06-09T04:42:10.890Z,60.00
2017-06-09T04:44:39.166Z,59.60
2017-06-09T04:47:07.495Z,59.50
2017-06-09T04:49:35.730Z,59.30
2017-06-09T04:52:03.972Z,59.00
2017-06-09T04:54:32.277Z,58.80
2017-06-09T04:57:00.544Z,57.70
2017-06-09T04:59:28.922Z,57.60
2017-06-09T05:01:57.167Z,56.80
2017-06-09T05:04:26.345Z,56.80
2017-06-09T05:06:54.674Z,56.80
2017-06-09T05:09:22.955Z,55.70
2017-06-09T05:11:51.178Z,54.20
2017-06-09T05:14:19.415Z,54.60
2017-06-09T05:16:47.784Z,53.50
2017-06-09T05:19:16.835Z,52.30
2017-06-09T05:21:45.350Z,52.30
2017-06-09T05:24:13.611Z,53.80
2017-06-09T05:26:41.866Z,52.00
2017-06-09T05:29:11.066Z,51.10
2017-06-09T05:31:39.347Z,51.00
2017-06-09T05:34:08.385Z,49.60
2017-06-09T05:36:36.748Z,49.50
2017-06-09T05:39:04.989Z,48.50
2017-06-09T05:41:33.263Z,47.40
2017-06-09T05:44:02.339Z,46.40
2017-06-09T05:46:30.657Z,46.40
2017-06-09T05:48:58.934Z,45.40
2017-06-09T05:51:27.294Z,45.00
2017-06-09T05:53:55.961Z,43.80
2017-06-09T05:56:24.975Z,43.20
2017-06-09T05:58:53.233Z,43.20
2017-06-09T06:01:22.233Z,42.90
2017-06-09T06:03:51.308Z,42.80
2017-06-09T06:06:19.633Z,41.60
2017-06-09T06:08:47.959Z,40.70
2017-06-09T06:11:16.198Z,39.70
2017-06-09T06:13:44.458Z,38.20
2017-06-09T06:16:12.741Z,37.50
2017-06-09T06:18:41.095Z,36.20
2017-06-09T06:21:09.559Z,34.70
2017-06-09T06:23:38.565Z,33.10
2017-06-09T06:26:06.797Z,33.10
2017-06-09T06:28:35.053Z,33.50
2017-06-09T06:31:03.299Z,32.50
2017-06-09T06:33:31.548Z,32.40
2017-06-09T06:36:00.685Z,34.20
2017-06-09T06:38:28.933Z,34.10
2017-06-09T06:40:57.188Z,34.60
2017-06-09T06:43:26.188Z,36.30
2017-06-09T06:45:55.214Z,36.90
2017-06-09T06:48:23.449Z,36.90
2017-06-09T06:50:52.469Z,38.20
2017-06-09T06:53:20.710Z,38.00
2017-06-09T06:55:49.757Z,40.20
2017-06-09T06:58:18.041Z,39.60
2017-06-09T07:00:46.406Z,39.60
2017-06-09T07:03:14.727Z,39.80
2017-06-09T07:05:42.965Z,39.60
2017-06-09T07:08:11.236Z,39.60
2017-06-09T07:10:39.486Z,39.00
2017-06-09T07:13:07.885Z,39.20
2017-06-09T07:15:36.120Z,39.10
2017-06-09T07:18:05.147Z,39.70
2017-06-09T07:20:33.381Z,39.60
2017-06-09T07:23:01.643Z,39.70
2017-06-09T07:25:29.982Z,40.00
2017-06-09T07:27:58.229Z,39.90
2017-06-09T07:30:26.584Z,40.60
2017-06-09T07:32:57.036Z,41.30
2017-06-09T07:35:26.612Z,40.20
2017-06-09T07:37:55.665Z,40.20
2017-06-09T07:40:25.205Z,39.90
2017-06-09T07:42:53.587Z,41.20
2017-06-09T07:45:21.841Z,41.30
2017-06-09T07:47:50.213Z,42.70
2017-06-09T07:50:19.291Z,42.30
2017-06-09T07:52:47.601Z,42.20
2017-06-09T07:55:15.942Z,42.30
2017-06-09T07:57:44.201Z,42.10
2017-06-09T08:00:12.497Z,42.30
2017-06-09T08:02:40.733Z,42.10
2017-06-09T08:05:09.773Z,43.00
2017-06-09T08:07:37.996Z,43.00
2017-06-09T08:10:07.033Z,42.60
2017-06-09T08:12:35.282Z,42.60
2017-06-09T08:15:03.534Z,42.40
2017-06-09T08:17:32.585Z,42.40
2017-06-09T08:20:00.814Z,42.30
2017-06-09T08:22:29.847Z,42.40
2017-06-09T08:24:58.224Z,42.40
2017-06-09T08:27:26.457Z,42.80
2017-06-09T08:29:55.484Z,39.70
2017-06-09T08:32:23.733Z,39.70
2017-06-09T08:34:52.050Z,40.00
2017-06-09T08:37:20.323Z,40.00
2017-06-09T08:39:48.634Z,41.50
2017-06-09T08:42:16.886Z,41.60
2017-06-09T08:44:45.138Z,42.00
2017-06-09T08:47:13.370Z,43.00
2017-06-09T08:49:42.418Z,44.50
2017-06-09T08:52:10.686Z,44.00
2017-06-09T08:54:38.956Z,43.80
2017-06-09T08:57:07.326Z,41.80
2017-06-09T08:59:35.563Z,41.80
2017-06-09T09:02:04.606Z,41.70
2017-06-09T09:04:32.852Z,41.50
2017-06-09T09:07:01.917Z,41.40
2017-06-09T09:09:30.162Z,41.40
2017-06-09T09:11:58.396Z,41.10
2017-06-09T09:14:26.678Z,41.00
2017-06-09T09:16:54.915Z,41.80
2017-06-09T09:19:23.276Z,42.10
2017-06-09T09:21:51.542Z,41.90
2017-06-09T09:24:19.785Z,41.80
2017-06-09T09:26:48.369Z,42.00
2017-06-09T09:29:16.667Z,42.80
2017-06-09T09:31:44.912Z,42.20
2017-06-09T09:34:13.929Z,42.80
2017-06-09T09:36:42.163Z,42.80
2017-06-09T09:39:11.209Z,43.20
2017-06-09T09:41:39.437Z,43.20
2017-06-09T09:44:08.439Z,43.00
2017-06-09T09:46:37.633Z,43.10
2017-06-09T09:49:06.665Z,44.00
2017-06-09T09:51:35.038Z,44.00
2017-06-09T09:54:03.398Z,43.50
2017-06-09T09:56:32.377Z,43.90
2017-06-09T09:59:00.633Z,43.90
2017-06-09T10:01:29.066Z,43.80
2017-06-09T10:03:57.556Z,44.90
2017-06-09T10:06:25.794Z,45.00
2017-06-09T10:08:54.046Z,44.20
2017-06-09T10:11:22.277Z,44.10
2017-06-09T10:13:50.518Z,43.70
2017-06-09T10:16:18.849Z,43.50
2017-06-09T10:18:47.198Z,44.70
2017-06-09T10:21:15.768Z,44.60
2017-06-09T10:23:44.168Z,44.50
2017-06-09T10:26:12.540Z,44.80
2017-06-09T10:28:41.022Z,44.60
2017-06-09T10:31:09.297Z,45.40
2017-06-09T10:33:37.540Z,44.60
2017-06-09T10:36:05.786Z,45.90
2017-06-09T10:38:34.017Z,45.80
2017-06-09T10:41:02.298Z,45.90
2017-06-09T10:43:30.638Z,46.10
2017-06-09T10:45:58.925Z,45.70
2017-06-09T10:48:27.350Z,46.00
2017-06-09T10:50:55.707Z,46.20
2017-06-09T10:53:24.079Z,46.30
2017-06-09T10:55:52.325Z,45.80
2017-06-09T10:58:20.675Z,46.50
2017-06-09T11:00:48.904Z,46.60
2017-06-09T11:03:17.237Z,46.60
2017-06-09T11:05:46.377Z,46.70
2017-06-09T11:08:14.617Z,47.20
2017-06-09T11:10:43.630Z,48.30
2017-06-09T11:13:11.896Z,48.30
2017-06-09T11:15:40.121Z,48.70
2017-06-09T11:18:08.397Z,49.20
2017-06-09T11:20:36.637Z,49.60
2017-06-09T11:23:04.869Z,51.50
2017-06-09T11:25:33.923Z,51.90
2017-06-09T11:28:02.158Z,51.10
2017-06-09T11:30:31.231Z,53.20
2017-06-09T11:32:59.467Z,53.20
2017-06-09T11:35:27.742Z,53.20
2017-06-09T11:37:56.001Z,53.00
2017-06-09T11:40:24.233Z,53.60
2017-06-09T11:42:53.275Z,55.30
2017-06-09T11:45:22.071Z,55.20
2017-06-09T11:47:50.545Z,55.80
2017-06-09T11:50:18.806Z,57.10
2017-06-09T11:52:47.060Z,58.20
2017-06-09T11:55:16.103Z,59.80
2017-06-09T11:57:44.386Z,59.60
2017-06-09T12:00:12.637Z,60.40
2017-06-09T12:02:41.211Z,60.10
2017-06-09T12:05:10.186Z,59.70
2017-06-09T12:07:38.449Z,59.70
2017-06-09T12:10:06.810Z,60.20
2017-06-09T12:12:35.060Z,60.30
2017-06-09T12:15:03.321Z,59.10
2017-06-09T12:17:31.598Z,57.60
2017-06-09T12:19:59.885Z,58.60
2017-06-09T12:22:28.122Z,58.60
2017-06-09T12:24:56.380Z,58.40
2017-06-09T12:27:25.389Z,58.10
2017-06-09T12:29:53.640Z,58.00
2017-06-09T12:32:21.893Z,56.50
2017-06-09T12:34:50.243Z,57.20
2017-06-09T12:37:18.508Z,56.60
2017-06-09T12:39:46.830Z,56.10
2017-06-09T12:42:15.061Z,55.90
2017-06-09T12:44:43.335Z,55.10
2017-06-09T12:47:11.635Z,56.50
2017-06-09T12:49:39.873Z,55.20
2017-06-09T12:52:08.209Z,55.00
2017-06-09T12:54:36.550Z,54.50
2017-06-09T12:57:04.816Z,54.20
2017-06-09T12:59:33.100Z,53.80
2017-06-09T13:02:01.346Z,53.40
2017-06-09T13:04:29.601Z,50.80
2017-06-09T13:06:58.626Z,49.40
2017-06-09T13:09:26.937Z,49.40
2017-06-09T13:11:55.191Z,50.30
2017-06-09T13:14:23.498Z,49.90
2017-06-09T13:16:51.848Z,50.60
2017-06-09T13:19:20.180Z,49.50
2017-06-09T13:21:49.265Z,49.40
2017-06-09T13:24:17.505Z,49.00
2017-06-09T13:26:45.764Z,49.30
2017-06-09T13:29:14.013Z,50.10
2017-06-09T13:31:42.251Z,50.60
2017-06-09T13:34:10.531Z,50.00
2017-06-09T13:36:38.764Z,50.10
2017-06-09T13:39:07.020Z,50.30
2017-06-09T13:41:36.019Z,51.50
2017-06-09T13:44:04.280Z,51.40
2017-06-09T13:46:33.318Z,51.60
2017-06-09T13:49:01.622Z,51.60
2017-06-09T13:51:29.881Z,52.70
2017-06-09T13:53:58.187Z,52.80
2017-06-09T13:59:01.049Z,53.90
2017-06-09T14:01:29.280Z,52.60
2017-06-09T14:03:57.521Z,53.80
2017-06-09T14:06:25.857Z,53.60
2017-06-09T14:08:54.088Z,52.30
2017-06-09T14:11:23.207Z,52.10
2017-06-09T14:13:51.467Z,52.10
2017-06-09T14:16:20.459Z,52.60
2017-06-09T14:18:49.550Z,51.70
2017-06-09T14:21:18.545Z,50.60
2017-06-09T14:23:47.593Z,51.00
2017-06-09T14:26:15.898Z,51.00
2017-06-09T14:28:44.177Z,50.10
2017-06-09T14:31:12.453Z,50.40
2017-06-09T14:33:41.548Z,50.30
2017-06-09T14:36:09.793Z,50.50
2017-06-09T14:38:38.037Z,50.60
2017-06-09T14:41:06.277Z,48.90
2017-06-09T14:43:35.428Z,49.00
2017-06-09T14:46:03.661Z,48.80
2017-06-09T14:48:32.695Z,49.80
2017-06-09T14:51:00.935Z,49.80
2017-06-09T14:53:29.384Z,49.50
2017-06-09T14:55:57.714Z,50.10
2017-06-09T14:58:25.957Z,49.20
2017-06-09T15:00:54.994Z,49.80
2017-06-09T15:03:23.314Z,49.80
2017-06-09T15:05:51.593Z,49.80
2017-06-09T15:08:19.940Z,49.40
2017-06-09T15:10:48.289Z,49.40
2017-06-09T15:13:16.606Z,49.40
2017-06-09T15:15:45.008Z,49.40
2017-06-09T15:18:14.083Z,49.30
2017-06-09T15:20:42.321Z,49.20
2017-06-09T15:23:10.554Z,48.40
2017-06-09T15:25:39.633Z,49.60
2017-06-09T15:28:07.960Z,49.40
2017-06-09T15:30:36.231Z,53.80
2017-06-09T15:33:04.485Z,53.60
2017-06-09T15:35:33.502Z,56.10
2017-06-09T15:38:01.777Z,56.10
2017-06-09T15:40:30.017Z,59.30
2017-06-09T15:42:58.253Z,55.70
2017-06-09T15:45:26.517Z,55.10
2017-06-09T15:47:54.757Z,58.90
2017-06-09T15:50:23.046Z,61.30
2017-06-09T15:52:51.296Z,61.70
2017-06-09T15:55:20.304Z,69.20
2017-06-09T15:57:48.558Z,69.20
2017-06-09T16:00:17.700Z,74.40
2017-06-09T16:02:45.977Z,74.40
2017-06-09T16:05:14.209Z,74.70
2017-06-09T16:07:42.449Z,76.70
2017-06-09T16:10:10.788Z,76.80
2017-06-09T16:12:39.027Z,74.10
2017-06-09T16:15:08.064Z,75.70
2017-06-09T16:17:36.309Z,75.60
2017-06-09T16:20:04.561Z,76.90
2017-06-09T16:22:32.837Z,77.20
2017-06-09T16:25:01.835Z,77.70
2017-06-09T16:27:30.928Z,78.60
2017-06-09T16:29:59.173Z,78.50
2017-06-09T16:32:27.412Z,78.50
2017-06-09T16:34:55.661Z,78.00
2017-06-09T16:37:24.683Z,77.20
2017-06-09T16:39:52.986Z,77.20
2017-06-09T16:42:21.352Z,76.20
2017-06-09T16:44:49.602Z,74.20
2017-06-09T16:47:17.914Z,72.00
2017-06-09T16:49:46.166Z,71.40
2017-06-09T16:52:14.416Z,72.20
2017-06-09T16:54:43.569Z,72.40
2017-06-09T16:57:11.807Z,72.40
2017-06-09T16:59:40.057Z,72.10
2017-06-09T17:02:09.189Z,74.20
2017-06-09T17:04:37.485Z,73.80
2017-06-09T17:07:05.739Z,74.30
2017-06-09T17:09:34.008Z,75.50
2017-06-09T17:12:02.298Z,74.20
2017-06-09T17:14:30.780Z,72.20
2017-06-09T17:16:59.059Z,72.90
2017-06-09T17:19:27.626Z,73.70
2017-06-09T17:21:56.218Z,72.50
2017-06-09T17:24:24.593Z,71.30
2017-06-09T17:26:52.878Z,72.50
2017-06-09T17:29:21.115Z,72.70
2017-06-09T17:31:49.401Z,74.00
2017-06-09T17:34:18.569Z,73.90
2017-06-09T17:36:46.904Z,73.80
2017-06-09T17:39:15.252Z,74.00
2017-06-09T17:41:43.582Z,73.00
2017-06-09T17:44:11.957Z,72.70
2017-06-09T17:46:40.238Z,72.60
2017-06-09T17:49:08.530Z,72.00
2017-06-09T18:09:21.591Z,75.90
2017-06-09T18:29:34.845Z,75.10
2017-06-09T18:49:49.023Z,73.80
2017-06-09T19:10:02.586Z,73.80
2017-06-09T19:30:18.277Z,70.80
2017-06-09T19:50:31.369Z,74.70
2017-06-09T19:52:59.633Z,74.10
2017-06-09T19:55:27.889Z,74.90
2017-06-09T19:57:56.134Z,75.60
2017-06-09T20:00:24.457Z,75.00
2017-06-09T20:02:53.477Z,75.90
2017-06-09T20:05:21.741Z,75.10
2017-06-09T20:07:50.003Z,75.30
2017-06-09T20:10:19.010Z,75.60
2017-06-09T20:12:47.352Z,75.50
2017-06-09T20:15:15.576Z,75.30
2017-06-09T20:17:43.853Z,75.50
2017-06-09T20:20:12.275Z,75.40
2017-06-09T20:22:40.557Z,74.80
2017-06-09T20:25:08.913Z,75.20
2017-06-09T20:27:37.145Z,74.50
2017-06-09T20:30:05.441Z,74.80
2017-06-09T20:32:33.870Z,75.40
2017-06-09T20:35:02.194Z,75.50
2017-06-09T20:37:30.447Z,75.60
2017-06-09T20:39:58.770Z,75.00
2017-06-09T20:42:27.023Z,75.00
2017-06-09T20:44:55.262Z,75.50
2017-06-09T20:47:25.533Z,74.90
2017-06-09T20:49:53.893Z,74.90
2017-06-09T20:52:22.149Z,74.40
2017-06-09T20:54:50.929Z,74.80
2017-06-09T20:57:19.256Z,74.50
2017-06-09T20:59:47.495Z,74.80
2017-06-09T21:02:15.753Z,74.70
2017-06-09T21:04:44.772Z,74.80
2017-06-09T21:07:13.016Z,74.80
2017-06-09T21:09:42.024Z,74.90
2017-06-09T21:12:10.259Z,74.80
2017-06-09T21:14:38.705Z,76.00
2017-06-09T21:17:06.942Z,75.80
2017-06-09T21:19:35.262Z,75.80
2017-06-09T21:22:03.494Z,75.80
2017-06-09T21:24:31.769Z,76.00
2017-06-09T21:27:00.804Z,75.90
2017-06-09T21:29:29.035Z,75.90
2017-06-09T21:31:58.052Z,75.90
2017-06-09T21:34:26.365Z,75.90
2017-06-09T21:36:54.622Z,76.10
2017-06-09T21:39:22.854Z,76.10
2017-06-09T21:41:51.881Z,75.10
2017-06-09T21:44:20.118Z,75.00
2017-06-09T21:46:49.145Z,75.80
2017-06-09T21:49:17.394Z,75.80
2017-06-09T21:51:46.450Z,74.80
2017-06-09T21:54:14.686Z,74.60
2017-06-09T21:56:42.930Z,74.10
2017-06-09T21:59:11.949Z,74.90
2017-06-09T22:01:40.190Z,74.80
2017-06-09T22:04:09.207Z,76.00
2017-06-09T22:06:37.537Z,75.90
2017-06-09T22:09:05.796Z,75.10
2017-06-09T22:11:34.037Z,74.60
2017-06-09T22:14:02.311Z,75.20
2017-06-09T22:16:30.622Z,75.70
2017-06-09T22:18:58.893Z,76.00
2017-06-09T22:21:27.325Z,75.90
2017-06-09T22:23:55.532Z,76.50
2017-06-09T22:26:23.822Z,76.40
2017-06-09T22:28:52.062Z,76.40
2017-06-09T22:31:20.375Z,76.50
2017-06-09T22:33:48.607Z,76.10
2017-06-09T22:36:16.955Z,76.10
2017-06-09T22:38:45.351Z,76.10
2017-06-09T22:41:13.599Z,76.20
2017-06-09T22:43:41.842Z,75.40
2017-06-09T22:46:10.111Z,75.50
2017-06-09T22:48:38.352Z,75.20
2017-06-09T22:51:07.455Z,76.00
2017-06-09T22:53:36.507Z,77.80
2017-06-09T22:56:04.758Z,76.70
2017-06-09T22:58:33.081Z,76.90
2017-06-09T23:01:01.415Z,77.10
2017-06-09T23:03:29.697Z,77.20
2017-06-09T23:05:58.005Z,77.20
2017-06-09T23:08:26.488Z,77.10
2017-06-09T23:10:54.706Z,76.80
2017-06-09T23:13:22.965Z,76.70
2017-06-09T23:15:51.194Z,75.90
2017-06-09T23:18:19.424Z,74.20
2017-06-09T23:20:47.720Z,74.70
2017-06-09T23:23:15.949Z,74.60
2017-06-09T23:25:50.653Z,75.10
2017-06-09T23:28:18.878Z,75.10
2017-06-09T23:30:48.566Z,75.30
2017-06-09T23:33:18.631Z,75.50
2017-06-09T23:35:46.934Z,75.50
2017-06-09T23:38:15.153Z,74.90
2017-06-09T23:40:43.398Z,75.00
2017-06-09T23:43:12.465Z,75.70
2017-06-09T23:45:40.694Z,74.90
2017-06-09T23:48:08.953Z,74.70
2017-06-09T23:50:37.953Z,74.50
2017-06-09T23:53:06.267Z,74.50
2017-06-09T23:55:34.502Z,73.90
2017-06-09T23:58:02.833Z,73.70
